• Join FlightAware (Why Join?)
  • Login
  • US Flag 
06:19PM EST


 

Airport Tracker/Info


-or-


 

Live Flight TrackerFlight Track Log ✈ N48VC ✈ 18-Jul-2013 ✈ KFAY - KPEA

Flight Track Log - Related Links

Times and Time Zones

All times are in EDT time to prevent confusion due to time zone crossing. See the N48VC flight status page for this flight to view local times or setup timezone preferences in your user account.

Time Position Orientation Groundspeed Altitude Reporting Facility
EDT Latitude Longitude Course Direction KTS MPH feet Rate Location/Type
05:27PM 35.1119 -78.8622 306° West 210 242 4,800  Level Washington Center
05:28PM 35.1525 -78.9072 318° Northwest 210 242 7,200 2,040 Climbing Washington Center
05:29PM 35.1950 -78.9519 319° Northwest 199 229 9,000 1,920 Climbing Washington Center
05:30PM 35.2417 -78.9972 322° Northwest 204 235 11,100 1,860 Climbing Washington Center
05:31PM 35.0107 -78.9202 301° West  Level FlightAware Approximate
05:31PM 35.2906 -79.0400 324° Northwest 209 241 12,700  Level Washington Center
05:32PM 35.0553 -79.0033 306° West  Level FlightAware Approximate
05:32PM 35.3369 -79.0956 316° Northwest 222 255 14,400  Level Washington Center
05:33PM 35.1115 -79.0970 306° West  Level FlightAware Approximate
05:33PM 35.3814 -79.1433 319° Northwest 236 272 15,800  Level Washington Center
05:34PM 35.4381 -79.2044 319° Northwest 236 272 17,400 1,500 Climbing Washington Center
05:35PM 35.4906 -79.2631 318° Northwest 243 280 18,800 1,440 Climbing Washington Center
05:36PM 35.5389 -79.3136 320° Northwest 248 285 20,300 1,320 Climbing Washington Center
05:37PM 35.5958 -79.3647 324° Northwest 253 291 21,500 1,320 Climbing Washington Center
05:38PM 35.6686 -79.3683 358° North 240 276 23,000 1,320 Climbing Washington Center
05:39PM 35.7417 -79.3692 359° North 245 282 24,200 1,080 Climbing Washington Center
05:40PM 35.8125 -79.3753 356° North 251 289 25,200 1,020 Climbing Washington Center
05:42PM 35.8967 -79.4836 314° West 254 292 27,000 1,080 Climbing Atlanta Center
05:43PM 35.9475 -79.5628 308° West 259 298 28,100 1,020 Climbing Atlanta Center
05:44PM 36.0056 -79.6136 325° Northwest 271 312 29,100 1,020 Climbing Atlanta Center
05:45PM 36.0700 -79.6639 328° Northwest 276 318 30,200 960 Climbing Atlanta Center
05:46PM 36.1364 -79.7169 327° Northwest 282 325 31,100 900 Climbing Atlanta Center
05:47PM 36.2117 -79.7747 328° Northwest 289 333 32,000 420 Climbing Atlanta Center
05:48PM 36.2825 -79.8328 327° Northwest 295 339 32,000  Level Atlanta Center
05:49PM 36.3636 -79.8931 329° Northwest 310 357 32,000  Level Atlanta Center
05:50PM 36.4408 -79.9561 327° Northwest 330 380 32,100 600 Climbing Atlanta Center
05:51PM 36.5094 -80.0119 327° Northwest 336 387 33,200 900 Climbing Atlanta Center
05:52PM 36.5822 -80.0703 327° Northwest 329 379 34,000 360 Climbing Atlanta Center
05:53PM 36.6594 -80.1339 327° Northwest 324 373 34,000  Level Atlanta Center
05:54PM 36.7364 -80.1972 327° Northwest 324 373 34,000  Level Atlanta Center
05:55PM 36.8222 -80.2711 325° Northwest 339 390 34,000 300 Level Atlanta Center
05:56PM 36.8972 -80.3428 323° Northwest 344 396 34,700 480 Climbing Atlanta Center
05:57PM 36.9642 -80.4150 319° Northwest 336 387 35,000 120 Climbing Atlanta Center
05:58PM 37.0289 -80.4978 314° West 329 379 35,000 360 Level Atlanta Center
05:59PM 37.0833 -80.5786 310° West 330 380 35,800 480 Climbing Atlanta Center
06:00PM 37.1258 -80.6783 298° West 330 380 36,000 60 Climbing Atlanta Center
06:02PM 37.2342 -80.9161 300° West 341 392 36,000  Level Indianapolis Center
06:03PM 37.2786 -81.0217 298° West 351 404 36,000  Level Indianapolis Center
06:04PM 37.3281 -81.1486 296° West 348 400 36,000  Level Indianapolis Center
06:05PM 37.3619 -81.2636 290° West 358 412 36,000  Level Indianapolis Center
06:06PM 37.3772 -81.3808 279° West 353 406 36,000  Level Indianapolis Center
06:07PM 37.3883 -81.5169 276° West 359 413 36,000  Level Indianapolis Center
06:08PM 37.4000 -81.6417 277° West 361 415 36,000  Level Indianapolis Center
06:09PM 37.4319 -81.7594 289° West 363 418 36,000  Level Indianapolis Center
06:10PM 37.4700 -81.8728 293° West 355 409 36,000  Level Indianapolis Center
06:11PM 37.5139 -82.0072 292° West 355 409 36,000  Level Indianapolis Center
06:12PM 37.5525 -82.1217 293° West 356 410 36,000  Level Indianapolis Center
06:13PM 37.5906 -82.2372 293° West 357 411 36,000  Level Indianapolis Center
06:14PM 37.6381 -82.3472 299° West 358 412 36,000  Level Indianapolis Center
06:15PM 37.6833 -82.4575 297° West 356 410 36,000  Level Indianapolis Center
06:16PM 37.7381 -82.5853 298° West 355 409 36,000  Level Indianapolis Center
06:18PM 37.7811 -82.6983 296° West 356 410 36,000  Level Indianapolis Center
06:19PM 37.8178 -82.8161 292° West 360 414 36,000  Level Indianapolis Center
06:20PM 37.8567 -82.9328 293° West 361 415 36,000  Level Indianapolis Center
06:21PM 37.8953 -83.0494 293° West 361 415 36,000  Level Indianapolis Center
06:22PM 37.9422 -83.1864 294° West 364 419 36,000  Level Indianapolis Center
06:23PM 37.9819 -83.3025 293° West 360 414 36,000  Level Indianapolis Center
06:24PM 38.0228 -83.4186 294° West 360 414 36,000  Level Indianapolis Center
06:25PM 38.0631 -83.5367 293° West 364 419 36,000  Level Indianapolis Center
06:26PM 38.1025 -83.6531 293° West 359 413 36,000  Level Indianapolis Center
06:27PM 38.1572 -83.7833 298° West 360 414 36,000  Level Indianapolis Center
06:28PM 38.2028 -83.8944 298° West 358 412 36,000  Level Indianapolis Center
06:29PM 38.2489 -84.0069 298° West 358 412 36,000  Level Indianapolis Center
06:30PM 38.2925 -84.1172 297° West 352 405 36,000  Level Indianapolis Center
06:31PM 38.3381 -84.2300 297° West 356 410 36,000  Level Indianapolis Center
06:32PM 38.3919 -84.3592 298° West 355 409 36,000  Level Indianapolis Center
06:33PM 38.4364 -84.4697 297° West 352 405 36,000  Level Indianapolis Center
06:34PM 38.4817 -84.5825 297° West 354 407 36,000  Level Indianapolis Center
06:35PM 38.5278 -84.6950 298° West 355 409 36,000  Level Indianapolis Center
06:36PM 38.5708 -84.8092 296° West 357 411 36,000  Level Indianapolis Center
06:37PM 38.6172 -84.9231 298° West 360 414 36,000  Level Indianapolis Center
06:38PM 38.6572 -85.0506 292° West 366 421 36,000  Level Indianapolis Center
06:39PM 38.6956 -85.1692 293° West 362 417 36,000  Level Indianapolis Center
06:40PM 38.7325 -85.2872 292° West 359 413 36,000  Level Indianapolis Center
06:41PM 38.7803 -85.4286 293° West 359 413 36,000  Level Indianapolis Center
06:42PM 38.8272 -85.5442 298° West 365 420 36,000  Level Indianapolis Center
06:43PM 38.8714 -85.6589 296° West 361 415 36,000  Level Indianapolis Center
06:44PM 38.9175 -85.7750 297° West 365 420 36,000  Level Indianapolis Center
06:45PM 38.9625 -85.8894 297° West 361 415 36,000  Level Indianapolis Center
06:46PM 39.0058 -86.0033 296° West 357 411 36,000  Level Indianapolis Center
06:48PM 39.0592 -86.1411 297° West 359 413 36,000  Level Indianapolis Center
06:49PM 39.1042 -86.2567 297° West 360 414 36,000  Level Indianapolis Center
06:50PM 39.1483 -86.3717 296° West 358 412 36,000  Level Indianapolis Center
06:51PM 39.1917 -86.4867 296° West 357 411 36,000  Level Indianapolis Center
06:52PM 39.2367 -86.6019 297° West 358 412 36,000  Level Indianapolis Center
06:53PM 39.2797 -86.7178 296° West 357 411 36,000  Level Indianapolis Center
06:54PM 39.3319 -86.8561 296° West 357 411 36,000  Level Indianapolis Center
06:55PM 39.3758 -86.9711 296° West 357 411 36,000  Level Indianapolis Center
06:56PM 39.4192 -87.0878 296° West 359 413 36,000  Level Indianapolis Center
06:57PM 39.4619 -87.2036 296° West 358 412 36,000  Level Indianapolis Center
06:58PM 39.5056 -87.3189 296° West 358 412 36,000  Level Indianapolis Center
06:59PM 39.5478 -87.4342 295° West 356 410 36,000  Level Indianapolis Center
07:00PM 39.5917 -87.5503 296° West 358 412 36,000  Level Indianapolis Center
07:01PM 39.6417 -87.6897 295° West 356 410 36,000  Level Indianapolis Center
07:02PM 39.6850 -87.8056 296° West 357 411 36,000  Level Indianapolis Center
07:03PM 39.7269 -87.9222 295° West 357 411 36,000  Level Indianapolis Center
07:04PM 39.7700 -88.0381 296° West 358 412 36,000  Level Indianapolis Center
07:05PM 39.8000 -88.1267 294° West 360 414 36,000  Level Kansas City Center
07:06PM 39.8442 -88.2514 295° West 359 413 36,000 -120 Level Kansas City Center
07:07PM 39.8814 -88.3442 298° West 358 412 35,800 -360 Descending Chicago Center
07:08PM 39.9242 -88.4686 294° West 372 428 35,400 -480 Descending Chicago Center
07:09PM 39.9683 -88.5925 295° West 377 434 34,900 -540 Descending Chicago Center
07:10PM 40.0133 -88.7194 295° West 385 443 34,400 -480 Descending Chicago Center
07:11PM 40.0581 -88.8475 295° West 388 447 34,000 -240 Descending Chicago Center
07:12PM 40.1025 -88.9725 295° West 381 438 34,000  Level Chicago Center
07:13PM 40.1539 -89.1208 294° West 374 430 34,000  Level Chicago Center
07:14PM 40.1961 -89.2425 294° West 369 425 34,000  Level Chicago Center
07:15PM 40.2389 -89.3647 295° West 369 425 34,000  Level Chicago Center
07:16PM 40.2797 -89.4861 294° West 364 419 34,000  Level Chicago Center
07:17PM 40.3222 -89.6089 294° West 367 422 34,000  Level Chicago Center
07:18PM 40.3628 -89.7300 294° West 362 417 34,000  Level Chicago Center
07:19PM 40.4058 -89.8539 295° West 369 425 34,000  Level Chicago Center
07:20PM 40.4553 -90.0036 294° West 368 423 34,000  Level Chicago Center
07:21PM 40.5000 -90.1253 296° West 371 427 34,000  Level Chicago Center
07:22PM 40.5414 -90.2497 294° West 367 422 34,000 -420 Level Chicago Center
07:23PM 40.5833 -90.3764 294° West 375 432 33,200 -900 Descending Chicago Center
07:24PM 40.6278 -90.5078 294° West 389 448 32,200 -1,020 Descending Chicago Center
07:25PM 40.6706 -90.6422 293° West 395 455 31,200 -960 Descending Chicago Center
07:26PM 40.7147 -90.7736 294° West 394 453 30,300 -1,020 Descending Chicago Center
07:27PM 40.7661 -90.9328 293° West 394 453 29,100 -1,080 Descending Chicago Center
07:28PM 40.8089 -91.0628 294° West 389 448 28,100 -1,020 Descending Chicago Center
07:29PM 40.8517 -91.1917 294° West 385 443 27,000 -1,140 Descending Chicago Center
07:30PM 40.8931 -91.3242 292° West 384 442 25,800 -1,260 Descending Chicago Center
07:31PM 40.9347 -91.4533 293° West 386 444 24,400 -900 Descending Chicago Center
07:32PM 40.9750 -91.5800 293° West 383 441 24,000 -1,140 Descending Chicago Center
07:33PM 41.0217 -91.7225 294° West 365 420 22,100 -1,920 Descending Chicago Center
07:34PM 41.0561 -91.8319 293° West 335 386 20,100 -1,800 Descending Chicago Center
07:36PM 41.0894 -91.9397 292° West 325 374 18,500 -1,560 Descending Chicago Center
07:37PM 41.1222 -92.0436 293° West 313 360 16,900 -1,740 Descending Chicago Center
07:38PM 41.1600 -92.1622 293° West 295 339 15,000 -1,680 Descending Chicago Center
07:39PM 41.1908 -92.2611 293° West 293 337 13,500 -1,440 Descending Chicago Center
07:40PM 41.2183 -92.3539 292° West 278 320 12,100 -1,620 Descending Chicago Center
07:41PM 41.2467 -92.4450 292° West 271 312 10,200 -1,380 Descending Chicago Center
07:42PM 41.2731 -92.5317 292° West 259 298 9,300 -1,740 Descending Chicago Center
07:43PM 41.3044 -92.6289 293° West 246 283 6,700 -1,860 Descending Chicago Center
07:44PM 41.3286 -92.7081 292° West 238 274 5,500 -1,380 Descending Chicago Center
07:45PM 41.3536 -92.7819 294° West 229 264 3,900 -1,560 Descending Chicago Center